Time;durP1;ratioP1;P1;durP2;ratioP2;P2;SDS_P1;SDS_P2;PMS_P1;PMS_P2;Temp;Humidity;BMP_temperature;BMP_pressure;BME280_temperature;BME280_humidity;BME280_pressure;Samples;Min_cycle;Max_cycle;Signal;HPM_P1;HPM_P2
2021/07/06 00:00:12;;;;;;;2.75;2.33;;;22.00;71.90;;;;;;5111794;28;20054;-41
2021/07/06 00:02:39;;;;;;;2.00;1.90;;;22.00;71.90;;;;;;5111601;28;20082;-43
2021/07/06 00:05:06;;;;;;;2.63;2.10;;;22.00;72.00;;;;;;5111642;28;20055;-43
2021/07/06 00:07:32;;;;;;;2.65;2.10;;;22.00;72.00;;;;;;5112702;28;20406;-45
2021/07/06 00:09:59;;;;;;;2.40;2.20;;;22.00;72.00;;;;;;5115315;28;20040;-41
2021/07/06 00:12:25;;;;;;;2.45;2.25;;;22.00;72.00;;;;;;5096756;28;20046;-44
2021/07/06 00:14:51;;;;;;;2.28;1.98;;;22.00;72.00;;;;;;5115455;28;20440;-43
2021/07/06 00:17:21;;;;;;;2.08;1.98;;;22.00;72.00;;;;;;5115060;28;20054;-46
2021/07/06 00:19:48;;;;;;;3.45;2.38;;;21.90;71.90;;;;;;5113820;28;20043;-44
2021/07/06 00:22:15;;;;;;;2.10;1.90;;;22.00;72.00;;;;;;5115614;28;20135;-40
2021/07/06 00:24:41;;;;;;;2.55;2.35;;;22.00;72.00;;;;;;5114834;28;20071;-47
2021/07/06 00:27:06;;;;;;;2.00;1.80;;;21.90;72.00;;;;;;5115368;28;20120;-43
2021/07/06 00:29:33;;;;;;;2.50;2.30;;;22.00;72.00;;;;;;5113427;28;20054;-41
2021/07/06 00:31:59;;;;;;;2.47;2.28;;;21.90;72.00;;;;;;5101720;28;20060;-44
2021/07/06 00:34:24;;;;;;;2.33;2.13;;;21.90;72.00;;;;;;5094625;28;20401;-44
2021/07/06 00:36:50;;;;;;;2.28;2.08;;;21.90;72.00;;;;;;5094534;28;20040;-41
2021/07/06 00:39:16;;;;;;;2.28;2.08;;;21.90;72.00;;;;;;5095051;28;20048;-42
2021/07/06 00:41:44;;;;;;;2.10;1.90;;;21.90;72.00;;;;;;5094687;28;20122;-47
2021/07/06 00:44:15;;;;;;;1.98;1.88;;;21.90;72.00;;;;;;5094507;28;20053;-42
2021/07/06 00:46:40;;;;;;;2.50;2.30;;;21.90;72.00;;;;;;5094200;28;20048;-47
2021/07/06 00:49:07;;;;;;;2.20;2.00;;;21.90;72.00;;;;;;5094449;28;20058;-40
2021/07/06 00:51:33;;;;;;;2.45;2.25;;;21.90;72.00;;;;;;5095439;28;20416;-42
2021/07/06 00:53:59;;;;;;;2.50;2.30;;;21.90;72.00;;;;;;5076641;28;20074;-44
2021/07/06 00:56:25;;;;;;;2.28;2.08;;;21.90;72.00;;;;;;5093769;28;20056;-45
2021/07/06 00:58:51;;;;;;;2.97;2.50;;;21.90;72.00;;;;;;5093986;28;20546;-44
2021/07/06 01:01:16;;;;;;;2.45;2.25;;;21.90;72.00;;;;;;5094875;28;20101;-49
2021/07/06 01:03:43;;;;;;;2.42;2.22;;;21.90;72.00;;;;;;5094119;28;20385;-45
2021/07/06 01:06:11;;;;;;;2.03;1.90;;;21.90;72.00;;;;;;5094190;28;20083;-44
2021/07/06 01:08:37;;;;;;;2.35;2.15;;;21.90;72.00;;;;;;5094115;28;20048;-41
2021/07/06 01:11:03;;;;;;;2.40;2.20;;;21.90;72.00;;;;;;5093734;28;20138;-41
2021/07/06 01:13:29;;;;;;;2.30;2.10;;;21.90;72.00;;;;;;5112786;28;20047;-45
2021/07/06 01:15:56;;;;;;;3.20;2.30;;;21.90;72.00;;;;;;5114337;28;20146;-42
2021/07/06 01:18:21;;;;;;;2.05;1.90;;;21.90;72.00;;;;;;5114189;28;20100;-45
2021/07/06 01:20:50;;;;;;;2.22;1.95;;;21.90;72.00;;;;;;5112576;28;20407;-42
2021/07/06 01:23:20;;;;;;;2.30;2.10;;;21.90;72.00;;;;;;5114390;28;20047;-44
2021/07/06 01:25:46;;;;;;;2.42;2.20;;;21.90;72.00;;;;;;5094151;28;20113;-41
2021/07/06 01:28:12;;;;;;;2.30;2.10;;;21.90;72.00;;;;;;5093469;28;20048;-49
2021/07/06 01:30:38;;;;;;;2.13;1.92;;;21.90;72.10;;;;;;5093791;28;20493;-49
2021/07/06 01:33:05;;;;;;;2.55;2.13;;;21.90;72.70;;;;;;5095298;28;20434;-45
2021/07/06 01:35:32;;;;;;;2.42;2.22;;;21.90;72.10;;;;;;5094530;28;20054;-46
2021/07/06 01:38:00;;;;;;;2.47;2.28;;;21.90;72.00;;;;;;5094186;28;20051;-46
2021/07/06 01:40:28;;;;;;;2.33;2.13;;;21.90;72.10;;;;;;5093658;28;20056;-43
2021/07/06 01:42:55;;;;;;;2.15;2.00;;;21.90;72.00;;;;;;5094108;28;20040;-43
2021/07/06 01:45:23;;;;;;;2.38;2.17;;;21.90;72.00;;;;;;5093535;28;20048;-41
2021/07/06 01:47:55;;;;;;;3.80;2.10;;;21.90;72.10;;;;;;5093470;28;20074;-44
2021/07/06 01:50:39;;;;;;;2.38;2.17;;;21.90;72.00;;;;;;5093648;28;20059;-48
2021/07/06 01:53:14;;;;;;;2.40;2.20;;;21.90;72.10;;;;;;5094393;28;20098;-49
2021/07/06 01:55:45;;;;;;;2.30;2.10;;;21.90;72.10;;;;;;5092968;28;20492;-42
2021/07/06 01:58:13;;;;;;;2.40;2.20;;;21.90;72.10;;;;;;5092543;28;20437;-43
2021/07/06 02:00:50;;;;;;;2.20;2.00;;;21.90;72.10;;;;;;5093198;28;20352;-48
2021/07/06 02:03:16;;;;;;;2.85;2.65;;;21.80;72.00;;;;;;5094114;28;20101;-43
2021/07/06 02:05:47;;;;;;;2.45;2.17;;;21.90;72.10;;;;;;5092879;28;20078;-49
2021/07/06 02:08:16;;;;;;;2.50;2.30;;;21.80;72.00;;;;;;5092874;28;20408;-44
2021/07/06 02:10:44;;;;;;;2.45;2.25;;;21.90;72.10;;;;;;5092535;28;20177;-50
2021/07/06 02:13:16;;;;;;;2.33;2.13;;;21.80;72.00;;;;;;5092787;28;20078;-42
2021/07/06 02:15:43;;;;;;;2.50;2.30;;;21.90;72.10;;;;;;5074602;28;20044;-42
2021/07/06 02:18:20;;;;;;;2.90;2.20;;;21.80;72.00;;;;;;5092640;28;20139;-44
2021/07/06 02:20:56;;;;;;;2.40;2.20;;;21.90;72.10;;;;;;5092663;28;20500;-47
2021/07/06 02:23:23;;;;;;;3.35;2.28;;;21.90;72.10;;;;;;5092369;28;20044;-46
2021/07/06 02:25:50;;;;;;;2.40;2.20;;;21.80;72.00;;;;;;5093363;28;20044;-46
2021/07/06 02:28:16;;;;;;;2.60;2.40;;;21.80;72.00;;;;;;5092535;28;20047;-41
2021/07/06 02:30:42;;;;;;;2.33;2.05;;;21.80;72.10;;;;;;5091372;28;20673;-41
2021/07/06 02:33:08;;;;;;;2.25;2.03;;;21.80;72.00;;;;;;5092421;28;20131;-41
2021/07/06 02:35:34;;;;;;;2.63;2.42;;;21.80;72.10;;;;;;5093314;28;20071;-49
2021/07/06 02:38:02;;;;;;;2.70;2.28;;;21.80;72.10;;;;;;5091553;28;20465;-41
2021/07/06 02:40:29;;;;;;;2.55;2.35;;;21.80;72.10;;;;;;5092417;28;20040;-40
2021/07/06 02:42:55;;;;;;;2.70;2.20;;;21.80;72.10;;;;;;5092246;28;20441;-47
2021/07/06 02:45:21;;;;;;;2.22;2.03;;;21.80;72.10;;;;;;5091884;28;20817;-44
2021/07/06 02:47:47;;;;;;;2.47;2.28;;;21.80;72.10;;;;;;5095207;28;20051;-50
2021/07/06 02:50:15;;;;;;;2.47;2.20;;;21.80;72.10;;;;;;5112493;28;20044;-51
2021/07/06 02:52:42;;;;;;;2.60;2.40;;;21.80;72.10;;;;;;5112311;28;20054;-42
2021/07/06 02:55:09;;;;;;;2.28;2.08;;;21.80;72.10;;;;;;5112358;28;20555;-45
2021/07/06 03:00:09;;;;;;;2.33;2.13;;;21.80;72.10;;;;;;5112455;28;20044;-45
2021/07/06 03:02:36;;;;;;;2.10;1.90;;;21.80;72.10;;;;;;5112016;28;20139;-45
2021/07/06 03:05:04;;;;;;;2.38;2.17;;;21.80;72.10;;;;;;5112184;28;20183;-44
2021/07/06 03:07:29;;;;;;;2.50;2.30;;;21.80;72.80;;;;;;5110240;28;20116;-44
2021/07/06 03:09:55;;;;;;;2.30;2.10;;;21.80;72.10;;;;;;5112182;28;20074;-39
2021/07/06 03:12:21;;;;;;;2.00;1.85;;;21.80;72.10;;;;;;5112184;28;20044;-44
2021/07/06 03:14:46;;;;;;;1.83;1.73;;;21.80;72.20;;;;;;5111870;28;20204;-41
2021/07/06 03:17:12;;;;;;;2.20;2.10;;;21.80;72.10;;;;;;5111200;28;20090;-42
2021/07/06 03:19:38;;;;;;;2.53;2.28;;;21.80;72.10;;;;;;5109392;28;20701;-47
2021/07/06 03:22:03;;;;;;;2.35;2.10;;;21.80;72.10;;;;;;5111176;28;20100;-44
2021/07/06 03:24:29;;;;;;;2.20;2.00;;;21.80;72.10;;;;;;5111198;28;20063;-44
2021/07/06 03:26:55;;;;;;;2.20;2.00;;;21.80;72.20;;;;;;5111053;28;20051;-42
2021/07/06 03:29:21;;;;;;;2.38;2.17;;;21.80;72.20;;;;;;5109696;28;20070;-51
2021/07/06 03:31:46;;;;;;;2.22;2.00;;;21.80;72.20;;;;;;5112050;28;20060;-47
2021/07/06 03:34:12;;;;;;;2.00;1.90;;;21.80;72.10;;;;;;5111006;28;20048;-46
2021/07/06 03:36:38;;;;;;;2.45;2.25;;;21.80;72.20;;;;;;5112142;28;20051;-42
2021/07/06 03:39:03;;;;;;;2.38;2.17;;;21.80;72.20;;;;;;5111450;28;20059;-49
2021/07/06 03:41:29;;;;;;;2.20;2.00;;;21.80;72.20;;;;;;5107730;28;20113;-45
2021/07/06 03:43:55;;;;;;;2.08;1.92;;;21.80;72.80;;;;;;5096484;28;20052;-51
2021/07/06 03:46:20;;;;;;;2.50;2.30;;;21.80;72.20;;;;;;5096072;28;20036;-46
2021/07/06 03:48:47;;;;;;;2.03;1.77;;;21.80;72.20;;;;;;5095556;28;20051;-44
2021/07/06 03:51:13;;;;;;;2.83;1.88;;;21.70;72.10;;;;;;5096919;28;20115;-51
2021/07/06 03:53:39;;;;;;;1.88;1.73;;;21.80;72.20;;;;;;5095790;28;20505;-53
2021/07/06 03:56:04;;;;;;;2.42;2.13;;;21.80;72.20;;;;;;5096371;28;20055;-48
2021/07/06 03:58:30;;;;;;;2.13;1.80;;;21.80;72.20;;;;;;5096710;28;20492;-50
2021/07/06 04:00:56;;;;;;;2.08;1.95;;;21.80;72.20;;;;;;5096680;28;20498;-43
2021/07/06 04:03:25;;;;;;;1.75;1.65;;;21.80;72.20;;;;;;5095498;28;20048;-43
2021/07/06 04:05:51;;;;;;;1.90;1.80;;;21.80;72.20;;;;;;5095308;28;20049;-44
2021/07/06 04:08:17;;;;;;;2.10;1.90;;;21.70;72.10;;;;;;5095347;28;20055;-51
2021/07/06 04:10:43;;;;;;;2.03;1.92;;;21.80;72.20;;;;;;5095655;28;20047;-46
2021/07/06 04:13:09;;;;;;;2.13;1.92;;;21.80;72.20;;;;;;5096586;28;20048;-50
2021/07/06 04:15:35;;;;;;;2.13;1.92;;;21.80;72.20;;;;;;5095275;28;20441;-50
2021/07/06 04:18:01;;;;;;;1.95;1.80;;;21.80;72.20;;;;;;5095132;28;20048;-52
2021/07/06 04:20:27;;;;;;;2.22;2.03;;;21.80;72.20;;;;;;5094841;28;20117;-48
2021/07/06 04:22:53;;;;;;;2.05;1.90;;;21.80;72.20;;;;;;5096188;28;20036;-46
2021/07/06 04:25:18;;;;;;;2.03;1.88;;;21.80;72.20;;;;;;5094743;28;20067;-48
2021/07/06 04:27:44;;;;;;;1.95;1.75;;;21.80;72.20;;;;;;5095192;28;20064;-48
2021/07/06 04:30:11;;;;;;;1.70;1.60;;;21.80;72.20;;;;;;5095036;28;20458;-46
2021/07/06 04:32:37;;;;;;;2.10;1.90;;;21.80;72.20;;;;;;5095795;28;20036;-49
2021/07/06 04:35:04;;;;;;;1.90;1.80;;;21.80;72.20;;;;;;5094373;28;20447;-45
2021/07/06 04:37:30;;;;;;;1.73;1.63;;;21.70;72.10;;;;;;5094686;28;20050;-52
2021/07/06 04:39:56;;;;;;;2.20;2.05;;;21.80;72.20;;;;;;5094536;28;20051;-46
2021/07/06 04:42:22;;;;;;;2.40;2.20;;;21.80;72.20;;;;;;5094773;28;20048;-47
2021/07/06 04:44:47;;;;;;;1.83;1.73;;;21.80;72.20;;;;;;5095524;28;20112;-49
2021/07/06 04:47:13;;;;;;;1.80;1.70;;;21.80;72.20;;;;;;5094924;28;20051;-45
2021/07/06 04:49:39;;;;;;;2.33;1.80;;;21.80;72.20;;;;;;5094479;28;20556;-50
2021/07/06 04:52:05;;;;;;;1.92;1.80;;;21.70;72.10;;;;;;5093565;28;20531;-50
2021/07/06 04:54:31;;;;;;;1.88;1.77;;;21.80;72.20;;;;;;5095177;28;20063;-48
2021/07/06 04:56:57;;;;;;;1.70;1.60;;;21.70;72.10;;;;;;5094470;28;20052;-42
2021/07/06 04:59:23;;;;;;;1.95;1.85;;;21.70;72.20;;;;;;5094240;28;20522;-47
2021/07/06 05:01:48;;;;;;;1.80;1.70;;;21.80;72.20;;;;;;5094327;28;20393;-48
2021/07/06 05:04:15;;;;;;;1.95;1.77;;;21.70;72.10;;;;;;5094069;28;20507;-39
2021/07/06 05:06:44;;;;;;;1.83;1.73;;;21.80;72.20;;;;;;5112996;28;20046;-43
2021/07/06 05:09:09;;;;;;;2.00;1.90;;;21.70;72.10;;;;;;5114396;28;20527;-41
2021/07/06 05:11:35;;;;;;;1.77;1.67;;;21.70;72.10;;;;;;5114368;28;20143;-42
2021/07/06 05:14:01;;;;;;;1.90;1.70;;;21.80;72.20;;;;;;5114323;28;20035;-42
2021/07/06 05:16:27;;;;;;;1.70;1.60;;;21.80;72.20;;;;;;5112505;28;20046;-47
2021/07/06 05:18:53;;;;;;;1.85;1.75;;;21.80;72.20;;;;;;5114369;28;20052;-46
2021/07/06 05:21:18;;;;;;;1.75;1.65;;;21.80;72.20;;;;;;5114268;28;20050;-41
2021/07/06 05:23:44;;;;;;;1.95;1.80;;;21.80;72.20;;;;;;5113729;28;20383;-39
2021/07/06 05:26:12;;;;;;;2.05;1.60;;;21.80;72.20;;;;;;5111974;28;20430;-41
2021/07/06 05:28:38;;;;;;;1.85;1.75;;;21.80;72.20;;;;;;5113909;28;20039;-43
2021/07/06 05:31:05;;;;;;;1.92;1.70;;;21.80;72.20;;;;;;5114103;28;20044;-47
2021/07/06 05:33:31;;;;;;;1.52;1.42;;;21.80;72.20;;;;;;5113768;28;20480;-48
2021/07/06 05:35:56;;;;;;;1.55;1.45;;;21.80;72.20;;;;;;5113627;28;20048;-49
2021/07/06 05:38:22;;;;;;;2.03;1.90;;;21.80;72.20;;;;;;5111586;28;20050;-50
2021/07/06 05:40:54;;;;;;;2.20;2.00;;;21.80;72.20;;;;;;5113384;28;20482;-42
2021/07/06 05:43:20;;;;;;;1.60;1.50;;;21.70;72.10;;;;;;5113654;28;20047;-42
2021/07/06 05:45:46;;;;;;;1.50;1.40;;;21.70;72.10;;;;;;5113507;28;20479;-42
2021/07/06 05:48:11;;;;;;;1.65;1.55;;;21.70;72.10;;;;;;5112074;28;20047;-46
2021/07/06 05:50:37;;;;;;;2.03;1.85;;;21.80;72.20;;;;;;5097755;28;20117;-43
2021/07/06 05:53:04;;;;;;;1.80;1.70;;;21.70;72.10;;;;;;5093463;28;20044;-48
2021/07/06 05:55:30;;;;;;;1.77;1.67;;;21.80;72.20;;;;;;5092769;28;20044;-51
2021/07/06 05:57:56;;;;;;;1.60;1.50;;;21.80;72.20;;;;;;5094586;28;20046;-46
2021/07/06 06:00:22;;;;;;;1.67;1.58;;;21.70;72.10;;;;;;5093567;28;20059;-44
2021/07/06 06:02:48;;;;;;;1.80;1.67;;;21.80;72.20;;;;;;5093324;28;20044;-44
2021/07/06 06:05:14;;;;;;;1.80;1.60;;;21.70;72.10;;;;;;5092591;28;20044;-48
2021/07/06 06:07:43;;;;;;;1.70;1.60;;;21.80;72.20;;;;;;5093253;28;20052;-46
2021/07/06 06:10:11;;;;;;;1.90;1.70;;;21.70;72.80;;;;;;5093597;28;20488;-46
2021/07/06 06:12:37;;;;;;;1.50;1.40;;;21.80;72.20;;;;;;5093450;28;20116;-41
2021/07/06 06:15:05;;;;;;;1.85;1.75;;;21.80;72.20;;;;;;5093667;28;20102;-49
2021/07/06 06:17:31;;;;;;;1.98;1.70;;;21.80;72.20;;;;;;5093429;28;20062;-47
2021/07/06 06:19:57;;;;;;;1.58;1.48;;;21.80;72.20;;;;;;5094509;28;20044;-46
2021/07/06 06:22:23;;;;;;;1.63;1.52;;;21.80;72.20;;;;;;5096730;28;20089;-47
2021/07/06 06:24:49;;;;;;;1.63;1.52;;;21.70;72.10;;;;;;5112647;28;20062;-42
2021/07/06 06:27:15;;;;;;;1.80;1.70;;;21.80;72.20;;;;;;5113192;28;20040;-45
2021/07/06 06:29:42;;;;;;;1.52;1.42;;;21.80;72.10;;;;;;5111701;28;20048;-39
2021/07/06 06:32:08;;;;;;;1.50;1.40;;;21.70;72.10;;;;;;5113183;28;20051;-50
2021/07/06 06:34:34;;;;;;;1.52;1.42;;;21.80;72.20;;;;;;5113146;28;20545;-50
2021/07/06 06:36:59;;;;;;;1.30;1.20;;;21.80;72.20;;;;;;5113074;28;20134;-48
2021/07/06 06:39:25;;;;;;;1.45;1.35;;;21.80;72.20;;;;;;5113033;28;20054;-46
2021/07/06 06:41:51;;;;;;;1.67;1.58;;;21.80;72.20;;;;;;5099735;28;20039;-47
2021/07/06 06:44:17;;;;;;;1.45;1.35;;;21.80;72.20;;;;;;5092302;28;20071;-46
2021/07/06 06:46:43;;;;;;;1.70;1.60;;;21.80;72.10;;;;;;5092308;28;20048;-49
2021/07/06 06:49:09;;;;;;;1.50;1.40;;;21.80;72.20;;;;;;5092358;28;20055;-43
2021/07/06 06:51:35;;;;;;;1.58;1.48;;;21.80;72.20;;;;;;5093158;28;20480;-44
2021/07/06 06:54:01;;;;;;;1.35;1.23;;;21.80;72.10;;;;;;5092166;28;20043;-45
2021/07/06 06:56:29;;;;;;;1.60;1.50;;;21.80;72.10;;;;;;5091740;28;20048;-44
2021/07/06 06:58:54;;;;;;;1.58;1.40;;;21.70;72.00;;;;;;5092477;28;20119;-44
2021/07/06 07:01:20;;;;;;;1.42;1.33;;;21.80;72.10;;;;;;5092262;28;20559;-39
2021/07/06 07:03:46;;;;;;;1.80;1.70;;;21.80;72.10;;;;;;5093491;28;20055;-42
2021/07/06 07:06:12;;;;;;;1.40;1.30;;;21.80;72.10;;;;;;5092085;28;20052;-39
2021/07/06 07:08:38;;;;;;;1.40;1.30;;;21.70;72.00;;;;;;5092210;28;20490;-46
2021/07/06 07:11:04;;;;;;;1.50;1.30;;;21.80;72.10;;;;;;5092060;28;20078;-45
2021/07/06 07:13:29;;;;;;;2.35;1.50;;;21.80;72.10;;;;;;5093034;28;20135;-45
2021/07/06 07:15:55;;;;;;;1.40;1.30;;;21.80;72.10;;;;;;5091889;28;20395;-52
2021/07/06 07:18:21;;;;;;;1.45;1.35;;;21.80;72.10;;;;;;5092267;28;20090;-45
2021/07/06 07:20:47;;;;;;;1.75;1.55;;;21.80;72.10;;;;;;5092233;28;20346;-43
2021/07/06 07:23:12;;;;;;;1.40;1.30;;;21.70;72.00;;;;;;5092984;28;20054;-42
2021/07/06 07:25:38;;;;;;;1.30;1.20;;;21.80;72.10;;;;;;5091743;28;20048;-49
2021/07/06 07:28:05;;;;;;;1.50;1.40;;;21.80;72.10;;;;;;5091584;28;20055;-45
2021/07/06 07:30:31;;;;;;;1.38;1.27;;;21.80;72.10;;;;;;5092035;28;20047;-48
2021/07/06 07:32:57;;;;;;;1.02;1.02;;;21.80;72.10;;;;;;5091930;28;20048;-40
2021/07/06 07:35:23;;;;;;;1.40;1.30;;;21.80;72.70;;;;;;5092709;28;20048;-41
2021/07/06 07:37:49;;;;;;;1.30;1.20;;;21.70;72.00;;;;;;5091854;28;20051;-46
2021/07/06 07:40:17;;;;;;;1.33;1.23;;;21.80;72.10;;;;;;5091755;28;20044;-40
2021/07/06 07:42:43;;;;;;;1.38;1.27;;;21.80;72.00;;;;;;5091621;28;20044;-55
2021/07/06 07:45:10;;;;;;;1.30;1.20;;;21.80;72.70;;;;;;5100344;28;20047;-46
2021/07/06 07:47:36;;;;;;;1.67;1.10;;;21.80;72.10;;;;;;5111842;28;20393;-42
2021/07/06 07:50:04;;;;;;;1.40;1.30;;;21.80;72.00;;;;;;5111959;28;20054;-48
2021/07/06 07:52:32;;;;;;;1.40;1.30;;;21.80;72.00;;;;;;5112083;28;20058;-46
2021/07/06 07:54:58;;;;;;;1.50;1.40;;;21.80;72.00;;;;;;5110103;28;20052;-49
2021/07/06 07:57:24;;;;;;;1.13;1.10;;;21.80;72.00;;;;;;5093266;28;20066;-45
2021/07/06 07:59:59;;;;;;;1.30;1.20;;;21.80;72.00;;;;;;5111129;28;20047;-53
2021/07/06 08:02:25;;;;;;;1.25;1.20;;;21.80;72.00;;;;;;5093005;28;20127;-49
2021/07/06 08:04:51;;;;;;;1.30;1.20;;;21.80;72.00;;;;;;5111881;28;20143;-52
2021/07/06 08:07:17;;;;;;;1.83;1.10;;;21.80;72.00;;;;;;5110098;28;20131;-48
2021/07/06 08:09:43;;;;;;;1.10;1.00;;;21.80;72.00;;;;;;5111762;28;20075;-46
2021/07/06 08:12:10;;;;;;;1.33;1.23;;;21.80;72.00;;;;;;5111768;28;20051;-50
2021/07/06 08:14:36;;;;;;;1.13;1.02;;;21.80;72.00;;;;;;5111768;28;20051;-45
2021/07/06 08:17:03;;;;;;;1.20;1.10;;;21.80;72.00;;;;;;5102470;28;20043;-51
2021/07/06 08:19:29;;;;;;;1.33;1.23;;;21.80;72.00;;;;;;5091706;28;20044;-50
2021/07/06 08:21:55;;;;;;;1.35;1.25;;;21.80;72.00;;;;;;5091674;28;20495;-49
2021/07/06 08:24:21;;;;;;;1.02;1.02;;;21.80;72.00;;;;;;5091427;28;20063;-52
2021/07/06 08:26:47;;;;;;;1.30;1.20;;;21.80;72.00;;;;;;5092598;28;20048;-44
2021/07/06 08:29:13;;;;;;;1.58;1.30;;;21.80;72.00;;;;;;5095047;28;20044;-52
2021/07/06 08:31:39;;;;;;;1.02;1.02;;;21.80;72.00;;;;;;5095168;28;20059;-44
2021/07/06 08:34:05;;;;;;;1.17;1.17;;;21.80;72.00;;;;;;5095986;28;20051;-43
2021/07/06 08:36:31;;;;;;;1.13;1.10;;;21.80;72.00;;;;;;5095405;28;20121;-44
2021/07/06 08:38:57;;;;;;;1.33;1.23;;;21.80;72.00;;;;;;5096167;28;20067;-51
2021/07/06 08:41:23;;;;;;;1.10;1.00;;;21.80;72.00;;;;;;5094912;28;20075;-46
2021/07/06 08:43:49;;;;;;;1.48;1.30;;;21.80;72.00;;;;;;5094889;28;20075;-42
2021/07/06 08:46:18;;;;;;;1.40;1.30;;;21.80;72.00;;;;;;5094480;28;20051;-44
2021/07/06 08:48:46;;;;;;;1.33;1.20;;;21.80;72.00;;;;;;5095759;28;20459;-50
2021/07/06 08:51:19;;;;;;;1.20;1.10;;;21.80;71.90;;;;;;5094731;28;20449;-47
2021/07/06 08:53:45;;;;;;;1.30;1.20;;;21.80;71.90;;;;;;5094764;28;20054;-45
2021/07/06 08:56:11;;;;;;;1.17;1.10;;;21.90;72.00;;;;;;5094408;28;20055;-47
2021/07/06 08:58:37;;;;;;;0.90;0.90;;;21.80;71.90;;;;;;5095423;28;20484;-46
2021/07/06 09:01:03;;;;;;;1.30;1.20;;;21.80;71.90;;;;;;5076391;28;20040;-44
2021/07/06 09:03:50;;;;;;;1.17;1.10;;;21.80;71.90;;;;;;5094490;28;20047;-53
2021/07/06 09:06:16;;;;;;;1.20;1.10;;;21.90;71.90;;;;;;5094291;28;20406;-52
2021/07/06 09:08:43;;;;;;;1.15;1.10;;;21.80;71.90;;;;;;5094179;28;20044;-51
2021/07/06 09:11:15;;;;;;;0.88;0.88;;;21.80;71.90;;;;;;5095179;28;20106;-48
2021/07/06 09:13:41;;;;;;;1.30;1.20;;;21.80;71.90;;;;;;5094226;28;20139;-49
2021/07/06 09:16:06;;;;;;;1.13;1.05;;;21.80;71.90;;;;;;5094173;28;20058;-49
2021/07/06 09:18:33;;;;;;;0.93;0.93;;;21.90;72.00;;;;;;5093677;28;20059;-52
2021/07/06 09:21:08;;;;;;;2.28;1.13;;;21.90;72.00;;;;;;5095061;28;20040;-50
2021/07/06 09:23:42;;;;;;;1.27;1.13;;;21.90;72.00;;;;;;5093790;28;20507;-44
2021/07/06 09:26:25;;;;;;;1.10;1.10;;;21.90;72.00;;;;;;5093568;28;20056;-46
2021/07/06 09:28:56;;;;;;;1.30;1.20;;;21.90;71.90;;;;;;5093845;28;20052;-50
2021/07/06 09:31:31;;;;;;;1.25;1.15;;;21.90;72.00;;;;;;5094872;28;20048;-52
2021/07/06 09:34:07;;;;;;;0.90;0.90;;;21.90;72.00;;;;;;5093207;28;20135;-44
2021/07/06 09:36:38;;;;;;;0.95;0.90;;;21.90;72.00;;;;;;5093743;28;20044;-49
2021/07/06 09:39:16;;;;;;;0.90;0.90;;;21.90;72.00;;;;;;5092436;28;20047;-53
2021/07/06 09:41:51;;;;;;;1.15;1.05;;;21.90;72.00;;;;;;5094530;28;20044;-52
2021/07/06 09:44:22;;;;;;;1.23;1.13;;;21.90;72.00;;;;;;5093496;28;20051;-48
2021/07/06 09:47:02;;;;;;;1.00;0.90;;;21.90;72.00;;;;;;5093623;28;20044;-46
2021/07/06 09:49:33;;;;;;;0.80;0.80;;;21.90;72.00;;;;;;5093099;28;20124;-49
2021/07/06 09:52:12;;;;;;;0.88;0.88;;;21.90;72.00;;;;;;5076122;28;20040;-46
2021/07/06 09:54:44;;;;;;;1.33;1.15;;;21.90;72.00;;;;;;5093082;28;20044;-45
2021/07/06 10:00:07;;;;;;;0.95;0.95;;;21.90;72.00;;;;;;5093407;28;20055;-42
2021/07/06 10:02:34;;;;;;;1.23;1.13;;;21.90;72.00;;;;;;5094360;28;20058;-42
2021/07/06 10:05:04;;;;;;;1.05;1.00;;;21.90;72.10;;;;;;5092617;28;20043;-41
2021/07/06 10:07:30;;;;;;;0.90;0.90;;;21.90;72.10;;;;;;5110727;28;20066;-45
2021/07/06 10:09:57;;;;;;;1.25;1.15;;;21.90;72.10;;;;;;5113789;28;20048;-41
2021/07/06 10:12:23;;;;;;;0.95;0.95;;;21.90;72.10;;;;;;5113492;28;20046;-43
2021/07/06 10:14:50;;;;;;;1.10;1.00;;;21.90;72.10;;;;;;5111474;28;20097;-47
2021/07/06 10:17:16;;;;;;;0.80;0.80;;;21.90;72.10;;;;;;5112997;28;20047;-46
2021/07/06 10:19:44;;;;;;;0.85;0.85;;;21.90;72.10;;;;;;5113471;28;20040;-43
2021/07/06 10:22:10;;;;;;;1.13;1.02;;;21.90;72.10;;;;;;5112743;28;20067;-43
2021/07/06 10:24:46;;;;;;;1.00;0.90;;;21.90;72.20;;;;;;5111359;28;20048;-43
2021/07/06 10:27:20;;;;;;;0.80;0.80;;;21.90;72.20;;;;;;5113017;28;20079;-48
2021/07/06 10:29:47;;;;;;;1.08;0.98;;;21.90;72.10;;;;;;5113048;28;20081;-49
2021/07/06 10:32:37;;;;;;;0.80;0.80;;;21.90;72.20;;;;;;5113187;28;20051;-42
2021/07/06 10:35:03;;;;;;;0.82;0.82;;;21.90;72.20;;;;;;5096955;28;20058;-47
2021/07/06 10:37:30;;;;;;;0.80;0.80;;;21.90;72.20;;;;;;5112650;28;20051;-50
2021/07/06 10:40:12;;;;;;;0.98;0.95;;;21.90;72.20;;;;;;5113128;28;20059;-52
2021/07/06 10:42:39;;;;;;;0.90;0.80;;;22.00;72.20;;;;;;5112967;28;20043;-48
2021/07/06 10:45:33;;;;;;;1.83;1.02;;;22.00;72.30;;;;;;5111169;28;20069;-44
2021/07/06 10:47:59;;;;;;;1.00;0.90;;;22.00;72.30;;;;;;5109111;28;20058;-48
2021/07/06 10:50:30;;;;;;;1.05;0.95;;;22.00;72.30;;;;;;5112596;28;20461;-52
2021/07/06 10:53:20;;;;;;;0.70;0.70;;;22.00;72.30;;;;;;5112988;28;20076;-49
2021/07/06 10:56:01;;;;;;;0.90;0.90;;;22.00;72.20;;;;;;5111359;28;20408;-40
2021/07/06 10:58:50;;;;;;;0.70;0.70;;;22.00;72.20;;;;;;5112901;28;20054;-42
2021/07/06 11:01:41;;;;;;;0.90;0.88;;;22.00;72.20;;;;;;5112742;28;20058;-41
2021/07/06 11:04:09;;;;;;;0.70;0.70;;;22.00;72.20;;;;;;5112234;28;20047;-41
2021/07/06 11:06:43;;;;;;;0.80;0.77;;;22.00;72.20;;;;;;5110989;28;20040;-43
2021/07/06 11:09:36;;;;;;;0.90;0.90;;;22.00;72.20;;;;;;5102252;28;20433;-41
2021/07/06 11:12:23;;;;;;;0.70;0.70;;;22.00;72.20;;;;;;4990479;28;20121;-52
2021/07/06 11:14:50;;;;;;;0.98;0.93;;;22.00;72.10;;;;;;4990256;28;20042;-46
2021/07/06 11:17:41;;;;;;;0.95;0.95;;;22.00;72.10;;;;;;4991429;28;20065;-46
2021/07/06 11:20:30;;;;;;;0.68;0.68;;;22.00;72.10;;;;;;4990412;28;20053;-42
2021/07/06 11:22:57;;;;;;;0.77;0.77;;;22.00;72.10;;;;;;4990067;28;20054;-44
2021/07/06 11:25:23;;;;;;;0.75;0.75;;;22.00;72.10;;;;;;4989523;28;20129;-46
2021/07/06 11:27:58;;;;;;;0.70;0.70;;;22.00;72.00;;;;;;4991090;28;20133;-44
2021/07/06 11:30:25;;;;;;;0.80;0.80;;;22.00;72.00;;;;;;4989948;28;20930;-46
2021/07/06 11:33:12;;;;;;;0.77;0.70;;;22.00;72.00;;;;;;4989899;28;20471;-47
2021/07/06 11:36:07;;;;;;;0.82;0.80;;;22.10;72.00;;;;;;4989709;28;20054;-43
2021/07/06 11:38:33;;;;;;;0.50;0.50;;;22.10;72.00;;;;;;4990520;28;20047;-44
2021/07/06 11:41:03;;;;;;;1.08;0.98;;;22.10;72.10;;;;;;4989563;28;20355;-49
2021/07/06 11:43:31;;;;;;;0.68;0.68;;;22.10;72.00;;;;;;4989882;28;20059;-48
2021/07/06 11:46:00;;;;;;;0.60;0.60;;;22.10;72.00;;;;;;4989836;28;20054;-52
2021/07/06 11:48:28;;;;;;;0.68;0.65;;;22.10;72.00;;;;;;5015095;28;20064;-43
2021/07/06 11:50:55;;;;;;;1.08;0.70;;;22.10;72.00;;;;;;5106000;28;20043;-45
2021/07/06 11:53:40;;;;;;;0.68;0.60;;;22.10;72.00;;;;;;5091645;28;20048;-44
2021/07/06 11:56:09;;;;;;;0.63;0.63;;;22.10;71.90;;;;;;5091083;28;20079;-52
2021/07/06 11:58:35;;;;;;;0.88;0.73;;;22.10;71.90;;;;;;5091384;28;20430;-43
2021/07/06 12:01:09;;;;;;;0.60;0.60;;;22.10;71.90;;;;;;5092153;28;20071;-45
2021/07/06 12:03:36;;;;;;;0.70;0.70;;;22.10;71.90;;;;;;5094197;28;20229;-48
2021/07/06 12:06:02;;;;;;;0.75;0.75;;;22.20;71.90;;;;;;5095177;28;20051;-51
2021/07/06 12:08:31;;;;;;;0.63;0.63;;;22.20;71.90;;;;;;5095242;28;20044;-51
2021/07/06 12:10:58;;;;;;;0.60;0.60;;;22.10;71.90;;;;;;5095759;28;20081;-46
2021/07/06 12:13:26;;;;;;;0.93;0.77;;;22.20;71.90;;;;;;5105298;28;20051;-45
2021/07/06 12:15:55;;;;;;;0.77;0.75;;;22.20;71.90;;;;;;5114894;28;20043;-46
2021/07/06 12:18:21;;;;;;;0.70;0.70;;;22.20;71.90;;;;;;5115590;28;20048;-42
2021/07/06 12:21:05;;;;;;;0.60;0.60;;;22.20;71.80;;;;;;5114696;28;20074;-47
2021/07/06 12:23:32;;;;;;;0.50;0.50;;;22.30;71.90;;;;;;5094902;28;20066;-47
2021/07/06 12:25:59;;;;;;;0.88;0.50;;;22.20;71.80;;;;;;5094530;28;20063;-47
2021/07/06 12:28:25;;;;;;;0.43;0.43;;;22.20;71.80;;;;;;5094487;28;20051;-48
2021/07/06 12:31:14;;;;;;;0.60;0.60;;;22.30;71.90;;;;;;5094805;28;20123;-44
2021/07/06 12:33:41;;;;;;;0.85;0.68;;;22.30;71.80;;;;;;5095792;28;20131;-51
2021/07/06 12:36:07;;;;;;;0.68;0.68;;;22.30;71.80;;;;;;5094639;28;20373;-50
2021/07/06 12:38:33;;;;;;;0.60;0.50;;;22.30;71.80;;;;;;5094627;28;20044;-43
2021/07/06 12:40:59;;;;;;;0.52;0.52;;;22.30;71.80;;;;;;5094518;28;20059;-45
2021/07/06 12:43:25;;;;;;;0.50;0.50;;;22.30;71.80;;;;;;5095320;28;20058;-48
2021/07/06 12:45:50;;;;;;;0.57;0.57;;;22.40;71.80;;;;;;5094719;28;20412;-43
2021/07/06 12:48:26;;;;;;;0.60;0.60;;;22.40;71.80;;;;;;5094649;28;20127;-43
2021/07/06 12:50:53;;;;;;;0.52;0.52;;;22.40;71.70;;;;;;5094679;28;20496;-39
2021/07/06 12:53:23;;;;;;;0.68;0.68;;;22.40;71.70;;;;;;5095683;28;20100;-50
2021/07/06 12:55:49;;;;;;;0.70;0.70;;;22.40;71.70;;;;;;5094545;28;20051;-46
2021/07/06 12:58:14;;;;;;;0.50;0.50;;;22.40;71.70;;;;;;5094468;28;20051;-51